Terminal Aerodrome Forecast
Issued by NWS

Home | Current Version | Previous Version | Text Only | Print | Product List | Glossary Off
Versions: 1 2 3 4 5 6 7 8 9 10 11 12 13 14 15 16 17 18

000
FTUS45 KGGW 291129
TAFSDY
TAF
KSDY 291129Z 2912/3012 31008KT P6SM FEW060
     FM291700 33012G23KT P6SM FEW045
     FM300100 34009KT P6SM FEW150
     FM300300 34005KT P6SM SKC=

USA.gov is the U.S. government's official web portal to all federal, state and local government web resources and services.